Startpagina
METAR-TAF:

METAR-TAF

Vliegvelden :

Formosa, Argentinië

breedte: 26-12S, lengte: 058-14W, hoogte: 59 m

Actueel weer

Dit bericht is 13 minuten geleden gemaakt, om 15:00 UTC
Wind 8 kt uit het noorden
Temperatuur 30°C
Vochtigheid 66%
Druk 1007 hPa
Zicht 10 km of meer
Gebroken wolken op 2000 ft
Gebroken wolken op 10000 ft

METAR: SARF 251500Z 36008KT 9999 BKN020 BKN100 30/23 Q1007

Tijdstip: 12:13 (15:13 UTC)

Verwachting

Dit bericht is 4 uur en het 13 minuten geleden gemaakt, om 11:00 UTC
Verwachting geldig van 25 om 12 UTC tot 26 om 12 UTC
Wind 10 kt uit het noordoosten
Zicht 10 km of meer
geen wolken onder 1500 m en geen cumulonimbus
Wijzigt naar
van 25 om 15 UTC tot 25 om 16 UTC
Wind 15 kt uit het noorden
Zicht 10 km of meer
Verspreide wolken op 3000 ft
Weinig wolken op 4000 ft, Stapelwolken.

TAF: SARF 251100Z 2512/2612 05010KT CAVOK TX32/2518Z TN23/2609Z BECMG 2515/2516 36015KT 9999 SCT030 FEW040TCU

Waarnemingen en weersverwachtingen van meer dan 4000 vliegvelden (METAR en TAF).

De beschikbare stations zijn de gele en rode punten op de kaart.

Ga met uw muis naar het station om de naam te zien.

Klik dan om waarnemingen en weersverwachtingen te zien.

kaart wijzigen: klik op de groene knoppen met een zwart kruis om in te zoomen, op de groene knop met een streepje om uit te zoomen of op de groene pijlen voor aangrenzende kaarten.


METAR-TAF: